Time;durP1;ratioP1;P1;durP2;ratioP2;P2;SDS_P1;SDS_P2;PMS_P1;PMS_P2;Temp;Humidity;BMP_temperature;BMP_pressure;BME280_temperature;BME280_humidity;BME280_pressure;Samples;Min_cycle;Max_cycle;Signal;HPM_P1;HPM_P2
2020/12/21 00:01:36;;;;;;;;;;;3.40;99.90;;;;;;5114661;28;19928;-72
2020/12/21 00:04:02;;;;;;;;;;;3.30;99.90;;;;;;5113799;28;19923;-73
2020/12/21 00:06:28;;;;;;;;;;;3.30;99.90;;;;;;5114263;28;19923;-72
2020/12/21 00:08:54;;;;;;;;;;;3.30;99.90;;;;;;5110565;28;19931;-72
2020/12/21 00:11:20;;;;;;;;;;;3.30;99.90;;;;;;5094137;28;19924;-73
2020/12/21 00:13:46;;;;;;;;;;;3.30;99.90;;;;;;5093819;28;20297;-72
2020/12/21 00:16:13;;;;;;;;;;;3.30;99.90;;;;;;5094010;28;19924;-72
2020/12/21 00:18:39;;;;;;;;;;;3.30;99.90;;;;;;5093886;28;19928;-72
2020/12/21 00:21:05;;;;;;;;;;;3.30;99.90;;;;;;5093712;28;19928;-73
2020/12/21 00:23:31;;;;;;;;;;;3.30;99.90;;;;;;5093678;28;19932;-72
2020/12/21 00:25:57;;;;;;;;;;;3.40;99.90;;;;;;5093565;28;20343;-73
2020/12/21 00:28:23;;;;;;;;;;;3.40;99.90;;;;;;5093390;28;19924;-72
2020/12/21 00:30:49;;;;;;;;;;;3.40;99.90;;;;;;5093085;28;20418;-72
2020/12/21 00:33:16;;;;;;;;;;;3.50;99.90;;;;;;5092643;28;19924;-73
2020/12/21 00:35:42;;;;;;;;;;;3.50;99.90;;;;;;5092771;28;19932;-73
2020/12/21 00:38:08;;;;;;;;;;;3.40;99.90;;;;;;5105499;28;19924;-72
2020/12/21 00:40:34;;;;;;;;;;;3.40;99.90;;;;;;5113760;28;19924;-72
2020/12/21 00:43:00;;;;;;;;;;;3.40;99.90;;;;;;5113544;28;20628;-74
2020/12/21 00:45:26;;;;;;;;;;;3.40;99.90;;;;;;5114042;28;19923;-73
2020/12/21 00:47:52;;;;;;;;;;;3.40;99.90;;;;;;5113775;28;19927;-72
2020/12/21 00:50:19;;;;;;;;;;;3.40;99.90;;;;;;5113850;28;19968;-73
2020/12/21 00:52:45;;;;;;;;;;;3.40;99.90;;;;;;5113585;28;19924;-72
2020/12/21 00:55:11;;;;;;;;;;;3.40;99.90;;;;;;5113666;28;19923;-72
2020/12/21 00:57:37;;;;;;;;;;;3.50;99.90;;;;;;5102930;28;19977;-72
2020/12/21 01:00:05;;;;;;;;;;;3.50;99.90;;;;;;5093099;28;19924;-72
2020/12/21 01:02:31;;;;;;;;;;;3.40;99.90;;;;;;5092957;28;19924;-72
2020/12/21 01:04:57;;;;;;;;;;;3.40;99.90;;;;;;5093208;28;19955;-72
2020/12/21 01:07:24;;;;;;;;;;;3.40;99.90;;;;;;5093292;28;19924;-72
2020/12/21 01:09:50;;;;;;;;;;;3.40;99.90;;;;;;5093154;28;19928;-72
2020/12/21 01:12:16;;;;;;;;;;;3.40;99.90;;;;;;5093947;28;19928;-72
2020/12/21 01:14:42;;;;;;;;;;;3.40;99.90;;;;;;5092787;28;19950;-72
2020/12/21 01:17:08;;;;;;;;;;;3.40;99.90;;;;;;5092806;28;19925;-72
2020/12/21 01:19:34;;;;;;;;;;;3.50;99.90;;;;;;5093015;28;19928;-72
2020/12/21 01:22:00;;;;;;;;;;;3.50;99.90;;;;;;5092799;28;19986;-72
2020/12/21 01:24:27;;;;;;;;;;;3.50;99.90;;;;;;5092529;28;20381;-72
2020/12/21 01:26:53;;;;;;;;;;;3.50;99.90;;;;;;5092907;28;19924;-72
2020/12/21 01:29:19;;;;;;;;;;;3.50;99.90;;;;;;5092755;28;19935;-72
2020/12/21 01:31:45;;;;;;;;;;;3.50;99.90;;;;;;5102384;28;19931;-72
2020/12/21 01:34:12;;;;;;;;;;;3.40;99.90;;;;;;5112793;28;20360;-72
2020/12/21 01:36:38;;;;;;;;;;;3.40;99.90;;;;;;5112267;28;19923;-72
2020/12/21 01:39:04;;;;;;;;;;;3.40;99.90;;;;;;5113035;28;19931;-72
2020/12/21 01:41:31;;;;;;;;;;;3.40;99.90;;;;;;5093980;28;20376;-72
2020/12/21 01:43:58;;;;;;;;;;;3.30;99.90;;;;;;5091748;28;20296;-72
2020/12/21 01:46:24;;;;;;;;;;;3.30;99.90;;;;;;5092383;28;19924;-71
2020/12/21 01:48:50;;;;;;;;;;;3.30;99.90;;;;;;5092411;28;19924;-71
2020/12/21 01:51:20;;;;;;;;;;;3.30;99.90;;;;;;5092607;28;19924;-72
2020/12/21 01:53:46;;;;;;;;;;;3.30;99.90;;;;;;5092057;28;20320;-72
2020/12/21 01:56:13;;;;;;;;;;;3.30;99.90;;;;;;5092480;28;19924;-72
2020/12/21 01:58:40;;;;;;;;;;;3.30;99.90;;;;;;5092419;28;19954;-71
2020/12/21 02:01:06;;;;;;;;;;;3.40;99.90;;;;;;5092388;28;19974;-72
2020/12/21 02:03:32;;;;;;;;;;;3.30;99.90;;;;;;5092267;28;19927;-71
2020/12/21 02:05:59;;;;;;;;;;;3.30;99.90;;;;;;5092251;28;20525;-71
2020/12/21 02:08:24;;;;;;;;;;;3.20;99.90;;;;;;5099941;28;20401;-71
2020/12/21 02:10:50;;;;;;;;;;;3.30;99.90;;;;;;5112512;28;19924;-71
2020/12/21 02:13:17;;;;;;;;;;;3.30;99.90;;;;;;5109853;28;19924;-71
2020/12/21 02:15:43;;;;;;;;;;;3.30;99.90;;;;;;5110105;28;19928;-71
2020/12/21 02:18:09;;;;;;;;;;;3.30;99.90;;;;;;5092321;28;19943;-71
2020/12/21 02:20:36;;;;;;;;;;;3.30;99.90;;;;;;5092923;28;19925;-71
2020/12/21 02:23:02;;;;;;;;;;;3.40;99.90;;;;;;5100029;28;19924;-72
2020/12/21 02:25:28;;;;;;;;;;;3.40;99.90;;;;;;5092287;28;19924;-71
2020/12/21 02:27:54;;;;;;;;;;;3.40;99.90;;;;;;5092315;28;20395;-71
2020/12/21 02:30:20;;;;;;;;;;;3.40;99.90;;;;;;5091879;28;19932;-71
2020/12/21 02:32:46;;;;;;;;;;;3.40;99.90;;;;;;5092100;28;20438;-71
2020/12/21 02:35:12;;;;;;;;;;;3.40;99.90;;;;;;5091942;28;19928;-71
2020/12/21 02:37:39;;;;;;;;;;;3.50;99.90;;;;;;5091885;28;19974;-71
2020/12/21 02:40:05;;;;;;;;;;;3.50;99.90;;;;;;5098705;28;19924;-71
2020/12/21 02:42:31;;;;;;;;;;;3.50;99.90;;;;;;5112372;28;19992;-71
2020/12/21 02:44:57;;;;;;;;;;;3.50;99.90;;;;;;5110383;28;20384;-71
2020/12/21 02:47:23;;;;;;;;;;;3.60;99.90;;;;;;5112381;28;19957;-72
2020/12/21 02:49:49;;;;;;;;;;;3.60;99.90;;;;;;5116234;28;20459;-72
2020/12/21 02:52:15;;;;;;;;;;;3.60;99.90;;;;;;5115691;28;19924;-71
2020/12/21 02:54:42;;;;;;;;;;;3.60;99.90;;;;;;5115905;28;20509;-72
2020/12/21 02:57:09;;;;;;;;;;;3.60;99.90;;;;;;5116043;28;19992;-71
2020/12/21 02:59:34;;;;;;;;;;;3.70;99.90;;;;;;5115740;28;19924;-72
2020/12/21 03:02:00;;;;;;;;;;;3.70;99.90;;;;;;5115835;28;20307;-71
2020/12/21 03:04:26;;;;;;;;;;;3.70;99.90;;;;;;5115517;28;19928;-71
2020/12/21 03:06:52;;;;;;;;;;;3.70;99.90;;;;;;5103198;28;20380;-72
2020/12/21 03:09:18;;;;;;;;;;;3.70;99.90;;;;;;5095493;28;19924;-72
2020/12/21 03:11:45;;;;;;;;;;;3.80;99.90;;;;;;5095300;28;19966;-72
2020/12/21 03:14:11;;;;;;;;;;;3.80;99.90;;;;;;5094671;28;19928;-72
2020/12/21 03:16:37;;;;;;;;;;;3.80;99.90;;;;;;5094737;28;19923;-73
2020/12/21 03:19:04;;;;;;;;;;;3.80;99.90;;;;;;5094472;28;19977;-72
2020/12/21 03:21:30;;;;;;;;;;;3.80;99.90;;;;;;5094238;28;19928;-72
2020/12/21 03:23:56;;;;;;;;;;;3.80;99.90;;;;;;5094255;28;19924;-72
2020/12/21 03:26:22;;;;;;;;;;;3.80;99.90;;;;;;5104854;28;19924;-71
2020/12/21 03:28:49;;;;;;;;;;;3.80;99.90;;;;;;5115471;28;19976;-72
2020/12/21 03:31:15;;;;;;;;;;;3.90;99.90;;;;;;5115254;28;19969;-71
2020/12/21 03:33:41;;;;;;;;;;;3.80;99.90;;;;;;5113571;28;20307;-71
2020/12/21 03:36:07;;;;;;;;;;;3.80;99.90;;;;;;5093973;28;19931;-71
2020/12/21 03:38:33;;;;;;;;;;;3.80;99.90;;;;;;5094782;28;19931;-71
2020/12/21 03:40:59;;;;;;;;;;;3.90;99.90;;;;;;5094653;28;19924;-71
2020/12/21 03:43:25;;;;;;;;;;;3.90;99.90;;;;;;5094356;28;19924;-71
2020/12/21 03:45:52;;;;;;;;;;;3.90;99.90;;;;;;5094666;28;19924;-71
2020/12/21 03:48:18;;;;;;;;;;;4.00;99.90;;;;;;5094582;28;19924;-72
2020/12/21 03:50:44;;;;;;;;;;;4.00;99.90;;;;;;5094382;28;20404;-72
2020/12/21 03:53:10;;;;;;;;;;;4.00;99.90;;;;;;5094343;28;19928;-71
2020/12/21 03:55:36;;;;;;;;;;;4.00;99.90;;;;;;5093992;28;19925;-72
2020/12/21 03:58:02;;;;;;;;;;;4.00;99.90;;;;;;5094465;28;19931;-72
2020/12/21 04:00:28;;;;;;;;;;;4.10;99.90;;;;;;5097789;28;20392;-72
2020/12/21 04:02:55;;;;;;;;;;;4.10;99.90;;;;;;5113927;28;19923;-72
2020/12/21 04:05:21;;;;;;;;;;;4.10;99.90;;;;;;5114534;28;19924;-72
2020/12/21 04:07:47;;;;;;;;;;;4.00;99.90;;;;;;5114655;28;20293;-72
2020/12/21 04:10:13;;;;;;;;;;;4.00;99.90;;;;;;5114240;28;19924;-72
2020/12/21 04:12:39;;;;;;;;;;;4.00;99.90;;;;;;5114392;28;19923;-72
2020/12/21 04:15:05;;;;;;;;;;;4.10;99.90;;;;;;5114409;28;20311;-72
2020/12/21 04:17:31;;;;;;;;;;;4.10;99.90;;;;;;5114421;28;19931;-72
2020/12/21 04:20:03;;;;;;;;;;;4.10;99.90;;;;;;5114306;28;19923;-73
2020/12/21 04:22:29;;;;;;;;;;;4.10;99.90;;;;;;5113628;28;20304;-72
2020/12/21 04:24:55;;;;;;;;;;;4.10;99.90;;;;;;5113287;27;19969;-73
2020/12/21 04:27:24;;;;;;;;;;;4.20;99.90;;;;;;5114212;28;20304;-68
2020/12/21 04:29:50;;;;;;;;;;;4.20;99.90;;;;;;5099309;28;19932;-67
2020/12/21 04:32:17;;;;;;;;;;;4.20;99.90;;;;;;5093266;28;19985;-67
2020/12/21 04:34:43;;;;;;;;;;;4.20;99.90;;;;;;5093742;28;19924;-67
2020/12/21 04:37:12;;;;;;;;;;;4.30;99.90;;;;;;5093683;28;19946;-67
2020/12/21 04:39:38;;;;;;;;;;;4.20;99.90;;;;;;5093782;28;20342;-68
2020/12/21 04:42:04;;;;;;;;;;;4.20;99.90;;;;;;5093610;28;19928;-69
2020/12/21 04:44:30;;;;;;;;;;;4.20;99.90;;;;;;5093509;28;19935;-69
2020/12/21 04:47:00;;;;;;;;;;;4.20;99.90;;;;;;5093803;28;19924;-67
2020/12/21 04:49:27;;;;;;;;;;;4.20;99.90;;;;;;5094116;28;19931;-69
2020/12/21 04:52:01;;;;;;;;;;;4.20;99.90;;;;;;5093450;28;20018;-68
2020/12/21 04:54:27;;;;;;;;;;;4.20;99.90;;;;;;5093186;28;19928;-69
2020/12/21 04:56:58;;;;;;;;;;;4.10;99.90;;;;;;5098212;28;20308;-70
2020/12/21 04:59:24;;;;;;;;;;;4.10;99.90;;;;;;5113512;28;19930;-68
2020/12/21 05:01:50;;;;;;;;;;;4.10;99.90;;;;;;5113607;28;19924;-69
2020/12/21 05:04:16;;;;;;;;;;;4.20;99.90;;;;;;5113317;28;19924;-68
2020/12/21 05:06:49;;;;;;;;;;;4.20;99.90;;;;;;5113374;28;19934;-68
2020/12/21 05:09:15;;;;;;;;;;;4.20;99.90;;;;;;5113465;28;19931;-68
2020/12/21 05:11:52;;;;;;;;;;;4.10;99.90;;;;;;5112209;28;19924;-67
2020/12/21 05:14:18;;;;;;;;;;;4.20;99.90;;;;;;5112925;28;20284;-67
2020/12/21 05:16:44;;;;;;;;;;;4.20;99.90;;;;;;5113398;28;19924;-66
2020/12/21 05:19:20;;;;;;;;;;;4.30;99.90;;;;;;5113344;28;20388;-66
2020/12/21 05:21:52;;;;;;;;;;;4.20;99.90;;;;;;5113204;28;20312;-67
2020/12/21 05:24:20;;;;;;;;;;;4.20;99.90;;;;;;5112925;28;19930;-67
2020/12/21 05:26:47;;;;;;;;;;;4.20;99.90;;;;;;5093575;28;19924;-68
2020/12/21 05:29:22;;;;;;;;;;;4.30;99.90;;;;;;5093038;28;19947;-68
2020/12/21 05:31:49;;;;;;;;;;;4.30;99.90;;;;;;5092736;28;19924;-67
2020/12/21 05:34:22;;;;;;;;;;;4.30;99.90;;;;;;5092236;28;19924;-66
2020/12/21 05:36:48;;;;;;;;;;;4.30;99.90;;;;;;5092364;28;19969;-66
2020/12/21 05:39:15;;;;;;;;;;;4.30;99.90;;;;;;5104192;28;19924;-67
2020/12/21 05:41:41;;;;;;;;;;;4.30;99.90;;;;;;5112594;28;19924;-67
2020/12/21 05:44:08;;;;;;;;;;;4.30;99.90;;;;;;5099780;28;19931;-67
2020/12/21 05:46:34;;;;;;;;;;;4.20;99.90;;;;;;5092611;28;19924;-67
2020/12/21 05:49:00;;;;;;;;;;;4.20;99.90;;;;;;5092582;28;19974;-67
2020/12/21 05:51:27;;;;;;;;;;;4.20;99.90;;;;;;5092367;28;19924;-67
2020/12/21 05:53:54;;;;;;;;;;;4.20;99.90;;;;;;5092295;28;19931;-67
2020/12/21 05:56:20;;;;;;;;;;;4.20;99.90;;;;;;5092408;28;19928;-67
2020/12/21 05:58:47;;;;;;;;;;;4.20;99.90;;;;;;5092440;28;19928;-67
2020/12/21 06:01:14;;;;;;;;;;;4.20;99.90;;;;;;5110005;28;19969;-67
2020/12/21 06:03:41;;;;;;;;;;;4.10;99.90;;;;;;5112513;28;19947;-67
2020/12/21 06:06:08;;;;;;;;;;;4.20;99.90;;;;;;5112562;28;20372;-67
2020/12/21 06:08:35;;;;;;;;;;;4.10;99.90;;;;;;5112773;28;19924;-67
2020/12/21 06:11:08;;;;;;;;;;;4.10;99.90;;;;;;5111261;28;19924;-67
2020/12/21 06:13:36;;;;;;;;;;;4.20;99.90;;;;;;5091992;28;19924;-67
2020/12/21 06:16:03;;;;;;;;;;;4.10;99.90;;;;;;5092163;28;19978;-67
2020/12/21 06:18:30;;;;;;;;;;;4.20;99.90;;;;;;5092181;28;19928;-67
2020/12/21 06:20:56;;;;;;;;;;;4.10;99.90;;;;;;5092077;28;19924;-67
2020/12/21 06:23:28;;;;;;;;;;;4.10;99.90;;;;;;5095283;28;19924;-68
2020/12/21 06:25:54;;;;;;;;;;;4.00;99.90;;;;;;5096214;28;19924;-67
2020/12/21 06:28:27;;;;;;;;;;;4.10;99.90;;;;;;5101220;28;19935;-67
2020/12/21 06:30:53;;;;;;;;;;;4.10;99.90;;;;;;5116376;28;19924;-67
2020/12/21 06:33:19;;;;;;;;;;;4.10;99.90;;;;;;5116500;28;19947;-67
2020/12/21 06:35:46;;;;;;;;;;;4.10;99.90;;;;;;5116439;28;19947;-67
2020/12/21 06:38:12;;;;;;;;;;;4.10;99.90;;;;;;5116574;28;19924;-67
2020/12/21 06:40:38;;;;;;;;;;;4.00;99.90;;;;;;5102911;28;19924;-67
2020/12/21 06:43:08;;;;;;;;;;;4.00;99.90;;;;;;5095609;28;20391;-67
2020/12/21 06:45:34;;;;;;;;;;;4.00;99.90;;;;;;5095598;28;19924;-67
2020/12/21 06:48:00;;;;;;;;;;;4.00;99.90;;;;;;5095946;28;19932;-67
2020/12/21 06:50:26;;;;;;;;;;;4.00;99.90;;;;;;5095594;28;20429;-67
2020/12/21 06:52:53;;;;;;;;;;;4.00;99.90;;;;;;5100303;28;19969;-67
2020/12/21 06:55:19;;;;;;;;;;;4.00;99.90;;;;;;5115946;28;20265;-67
2020/12/21 06:57:50;;;;;;;;;;;3.90;99.90;;;;;;5115930;28;20288;-67
2020/12/21 07:00:19;;;;;;;;;;;3.90;99.90;;;;;;5114822;28;19931;-69
2020/12/21 07:02:46;;;;;;;;;;;4.00;99.90;;;;;;5095439;28;19924;-69
2020/12/21 07:05:12;;;;;;;;;;;4.00;99.90;;;;;;5095589;28;20318;-70
2020/12/21 07:07:38;;;;;;;;;;;4.00;99.90;;;;;;5098574;28;19927;-68
2020/12/21 07:10:10;;;;;;;;;;;4.10;99.90;;;;;;5115740;28;19923;-70
2020/12/21 07:12:36;;;;;;;;;;;4.10;99.90;;;;;;5115356;28;19923;-70
2020/12/21 07:15:04;;;;;;;;;;;4.10;99.90;;;;;;5115302;28;19923;-70
2020/12/21 07:17:31;;;;;;;;;;;4.10;99.90;;;;;;5115723;28;19932;-69
2020/12/21 07:19:58;;;;;;;;;;;4.20;99.90;;;;;;5096174;28;19967;-70
2020/12/21 07:22:25;;;;;;;;;;;4.20;99.90;;;;;;5107353;28;20407;-70
2020/12/21 07:24:51;;;;;;;;;;;4.10;99.90;;;;;;5105703;28;20461;-68
2020/12/21 07:27:18;;;;;;;;;;;4.20;99.90;;;;;;5094799;28;20369;-67
2020/12/21 07:29:44;;;;;;;;;;;4.10;99.90;;;;;;5095160;28;19924;-70
2020/12/21 07:32:10;;;;;;;;;;;4.10;99.90;;;;;;5101547;28;19931;-68
2020/12/21 07:34:36;;;;;;;;;;;4.10;99.90;;;;;;5099343;28;19924;-70
2020/12/21 07:37:06;;;;;;;;;;;4.10;99.90;;;;;;5094076;28;20390;-70
2020/12/21 07:39:32;;;;;;;;;;;4.20;99.90;;;;;;5094293;28;19954;-69
2020/12/21 07:42:03;;;;;;;;;;;4.20;99.90;;;;;;5093910;28;19932;-69
2020/12/21 07:44:31;;;;;;;;;;;4.10;99.90;;;;;;5094073;28;19976;-69
2020/12/21 07:47:00;;;;;;;;;;;4.20;99.90;;;;;;5105145;28;19931;-69
2020/12/21 07:49:26;;;;;;;;;;;4.20;99.90;;;;;;5107520;28;20377;-69
2020/12/21 07:51:58;;;;;;;;;;;4.20;99.90;;;;;;5093811;28;19931;-68
2020/12/21 07:54:24;;;;;;;;;;;4.10;99.90;;;;;;5093648;28;19972;-68
2020/12/21 07:56:58;;;;;;;;;;;4.20;99.90;;;;;;5094285;28;20505;-70
2020/12/21 07:59:24;;;;;;;;;;;4.10;99.90;;;;;;5094536;28;19924;-70
2020/12/21 08:01:56;;;;;;;;;;;4.20;99.90;;;;;;5094285;28;19928;-70
2020/12/21 08:04:22;;;;;;;;;;;4.20;99.90;;;;;;5109203;28;19927;-70
2020/12/21 08:06:48;;;;;;;;;;;4.30;99.90;;;;;;5114738;28;19923;-69
2020/12/21 08:09:14;;;;;;;;;;;4.60;99.90;;;;;;5114209;28;19947;-70
2020/12/21 08:11:40;;;;;;;;;;;5.20;99.90;;;;;;5114553;28;19981;-69
2020/12/21 08:14:07;;;;;;;;;;;5.80;99.90;;;;;;5114270;28;19924;-70
2020/12/21 08:16:33;;;;;;;;;;;6.30;99.90;;;;;;5114333;28;20437;-70
2020/12/21 08:19:00;;;;;;;;;;;6.80;99.90;;;;;;5095432;28;19923;-69
2020/12/21 08:21:27;;;;;;;;;;;7.30;99.90;;;;;;5093772;28;19930;-68
2020/12/21 08:23:53;;;;;;;;;;;7.60;99.90;;;;;;5112596;28;19950;-68
2020/12/21 08:26:20;;;;;;;;;;;7.80;99.90;;;;;;5114450;28;20304;-70
2020/12/21 08:28:48;;;;;;;;;;;8.20;99.90;;;;;;5114360;28;19969;-70
2020/12/21 08:31:15;;;;;;;;;;;8.10;99.90;;;;;;5112499;28;19924;-70
2020/12/21 08:33:44;;;;;;;;;;;7.70;99.90;;;;;;5113737;28;19924;-68
2020/12/21 08:36:21;;;;;;;;;;;7.50;99.90;;;;;;5113451;28;19931;-70
2020/12/21 08:38:48;;;;;;;;;;;7.70;99.90;;;;;;5114208;28;19984;-70
2020/12/21 08:41:14;;;;;;;;;;;8.10;99.90;;;;;;5113923;28;20426;-69
2020/12/21 08:43:40;;;;;;;;;;;8.40;99.90;;;;;;5113838;28;19924;-69
2020/12/21 08:46:07;;;;;;;;;;;8.40;99.90;;;;;;5112789;28;19923;-70
2020/12/21 08:48:36;;;;;;;;;;;7.90;99.90;;;;;;5111770;28;19974;-72
2020/12/21 08:51:02;;;;;;;;;;;7.40;99.90;;;;;;5093459;28;19928;-73
2020/12/21 08:53:28;;;;;;;;;;;7.00;99.90;;;;;;5099798;28;19946;-71
2020/12/21 08:55:54;;;;;;;;;;;6.80;99.90;;;;;;5113431;28;19923;-68
2020/12/21 08:58:20;;;;;;;;;;;6.80;99.90;;;;;;5113332;28;20326;-71
2020/12/21 09:00:46;;;;;;;;;;;7.20;99.90;;;;;;5113493;28;19924;-71
2020/12/21 09:03:12;;;;;;;;;;;7.40;99.90;;;;;;5113098;28;20277;-69
2020/12/21 09:05:38;;;;;;;;;;;7.90;99.90;;;;;;5101624;28;19931;-70
2020/12/21 09:08:05;;;;;;;;;;;9.00;99.90;;;;;;5093189;28;20327;-70
2020/12/21 09:10:31;;;;;;;;;;;9.90;99.90;;;;;;5093086;28;19948;-71
2020/12/21 09:12:57;;;;;;;;;;;11.00;99.90;;;;;;5092812;28;20277;-71
2020/12/21 09:15:23;;;;;;;;;;;11.60;99.90;;;;;;5092772;28;19924;-70
2020/12/21 09:17:49;;;;;;;;;;;12.10;99.90;;;;;;5092867;28;20453;-70
2020/12/21 09:20:16;;;;;;;;;;;12.60;99.90;;;;;;5092709;28;20305;-70
2020/12/21 09:22:42;;;;;;;;;;;13.30;97.00;;;;;;5092673;28;20304;-70
2020/12/21 09:25:08;;;;;;;;;;;14.00;92.80;;;;;;5092792;28;19946;-69
2020/12/21 09:27:34;;;;;;;;;;;14.60;90.00;;;;;;5092870;28;19924;-69
2020/12/21 09:30:00;;;;;;;;;;;15.00;86.10;;;;;;5092532;28;19936;-70
2020/12/21 09:32:26;;;;;;;;;;;15.50;82.50;;;;;;5092332;28;20277;-69
2020/12/21 09:34:52;;;;;;;;;;;15.50;80.20;;;;;;5092634;28;19927;-70
2020/12/21 09:37:18;;;;;;;;;;;15.60;79.80;;;;;;5092700;28;20438;-71
2020/12/21 09:39:44;;;;;;;;;;;15.80;77.50;;;;;;5092707;28;19925;-71
2020/12/21 09:42:10;;;;;;;;;;;15.70;77.70;;;;;;5092319;28;19997;-69
2020/12/21 09:44:37;;;;;;;;;;;16.00;76.90;;;;;;5092441;28;19931;-69
2020/12/21 09:47:03;;;;;;;;;;;16.10;75.20;;;;;;5092381;28;20364;-69
2020/12/21 09:49:29;;;;;;;;;;;16.30;74.10;;;;;;5092663;28;19931;-69
2020/12/21 09:51:55;;;;;;;;;;;16.20;73.60;;;;;;5092510;28;19924;-69
2020/12/21 09:54:21;;;;;;;;;;;16.40;73.70;;;;;;5092295;28;19928;-70
2020/12/21 09:56:47;;;;;;;;;;;17.00;71.40;;;;;;5092017;28;19924;-70
2020/12/21 09:59:13;;;;;;;;;;;17.20;68.90;;;;;;5092302;28;20288;-70
2020/12/21 10:01:40;;;;;;;;;;;17.00;68.90;;;;;;5092096;28;20388;-69
2020/12/21 10:04:06;;;;;;;;;;;17.10;68.50;;;;;;5092103;28;19924;-69
2020/12/21 10:06:32;;;;;;;;;;;16.90;68.50;;;;;;5092226;28;19924;-70
2020/12/21 10:08:58;;;;;;;;;;;17.20;68.70;;;;;;5092409;28;19977;-70
2020/12/21 10:11:24;;;;;;;;;;;17.50;66.70;;;;;;5092212;28;19977;-70
2020/12/21 10:13:50;;;;;;;;;;;16.90;66.60;;;;;;5092170;28;19931;-69
2020/12/21 10:16:16;;;;;;;;;;;16.30;68.70;;;;;;5092394;28;19924;-70
2020/12/21 10:18:42;;;;;;;;;;;16.30;69.50;;;;;;5092386;28;19961;-69
2020/12/21 10:21:08;;;;;;;;;;;16.00;70.20;;;;;;5092235;28;19932;-71
2020/12/21 10:23:34;;;;;;;;;;;16.10;70.40;;;;;;5091855;28;20300;-70
2020/12/21 10:26:01;;;;;;;;;;;16.60;69.50;;;;;;5092220;28;19928;-71
2020/12/21 10:28:27;;;;;;;;;;;16.80;67.70;;;;;;5092110;28;19932;-70
2020/12/21 10:30:53;;;;;;;;;;;16.90;66.70;;;;;;5092750;28;19927;-73
2020/12/21 10:33:19;;;;;;;;;;;16.70;67.20;;;;;;5091917;28;19931;-74
2020/12/21 10:35:46;;;;;;;;;;;16.50;68.00;;;;;;5091766;28;20380;-73
2020/12/21 10:38:12;;;;;;;;;;;16.00;68.90;;;;;;5092083;28;19939;-73
2020/12/21 10:40:38;;;;;;;;;;;16.00;69.90;;;;;;5092069;28;19924;-72
2020/12/21 10:43:04;;;;;;;;;;;16.10;69.50;;;;;;5091792;28;20380;-72
2020/12/21 10:45:30;;;;;;;;;;;15.60;70.60;;;;;;5091829;28;20400;-72
2020/12/21 10:47:56;;;;;;;;;;;15.00;73.00;;;;;;5092121;28;19924;-72
2020/12/21 10:50:22;;;;;;;;;;;13.80;76.40;;;;;;5091865;28;19924;-72
2020/12/21 10:52:48;;;;;;;;;;;12.90;82.10;;;;;;5091593;28;19924;-74
2020/12/21 10:55:14;;;;;;;;;;;12.40;87.70;;;;;;5091707;28;19928;-72
2020/12/21 10:57:40;;;;;;;;;;;11.70;92.40;;;;;;5091671;28;19931;-73
2020/12/21 11:00:07;;;;;;;;;;;11.20;98.40;;;;;;5091665;28;19928;-73
2020/12/21 11:02:33;;;;;;;;;;;11.00;99.90;;;;;;5091455;28;19924;-73
2020/12/21 11:04:59;;;;;;;;;;;11.40;99.90;;;;;;5091162;28;19924;-73
2020/12/21 11:07:25;;;;;;;;;;;12.30;98.10;;;;;;5091069;28;19932;-73
2020/12/21 11:09:52;;;;;;;;;;;13.50;92.60;;;;;;5093343;28;20446;-74
2020/12/21 11:12:22;;;;;;;;;;;14.60;87.30;;;;;;5094646;28;19924;-72
2020/12/21 11:14:48;;;;;;;;;;;15.00;80.90;;;;;;5095015;28;19924;-73
2020/12/21 11:17:14;;;;;;;;;;;15.50;77.60;;;;;;5095254;28;19924;-72
2020/12/21 11:19:40;;;;;;;;;;;15.70;76.00;;;;;;5095243;28;19924;-72
2020/12/21 11:22:06;;;;;;;;;;;16.00;74.20;;;;;;5094986;28;19947;-73
2020/12/21 11:24:32;;;;;;;;;;;16.40;72.70;;;;;;5094776;28;19924;-73
2020/12/21 11:26:59;;;;;;;;;;;17.00;69.80;;;;;;5094786;28;19924;-73
2020/12/21 11:29:25;;;;;;;;;;;17.30;68.50;;;;;;5094736;28;19924;-73
2020/12/21 11:31:51;;;;;;;;;;;17.30;66.30;;;;;;5094640;28;19935;-73
2020/12/21 11:34:17;;;;;;;;;;;17.30;67.60;;;;;;5094326;28;19939;-73
2020/12/21 11:36:44;;;;;;;;;;;17.10;68.10;;;;;;5094432;28;19931;-73
2020/12/21 11:39:10;;;;;;;;;;;17.00;66.90;;;;;;5094442;28;19930;-73
2020/12/21 11:41:36;;;;;;;;;;;16.90;67.20;;;;;;5094421;28;19924;-72
2020/12/21 11:44:02;;;;;;;;;;;17.10;67.30;;;;;;5093940;28;19924;-74
2020/12/21 11:46:29;;;;;;;;;;;16.50;67.70;;;;;;5094122;28;19924;-74
2020/12/21 11:48:55;;;;;;;;;;;16.20;69.90;;;;;;5094091;28;19928;-74
2020/12/21 11:51:21;;;;;;;;;;;16.00;70.10;;;;;;5093965;28;20336;-74
2020/12/21 11:53:47;;;;;;;;;;;16.20;70.10;;;;;;5094094;28;19977;-74
2020/12/21 11:56:15;;;;;;;;;;;16.10;69.80;;;;;;5094388;28;19984;-73
2020/12/21 11:58:41;;;;;;;;;;;15.40;71.50;;;;;;5094514;28;19943;-72
2020/12/21 12:01:08;;;;;;;;;;;14.70;74.20;;;;;;5094236;28;20008;-74
2020/12/21 12:03:34;;;;;;;;;;;14.30;76.80;;;;;;5094145;28;19924;-73
2020/12/21 12:06:01;;;;;;;;;;;13.80;79.10;;;;;;5094346;28;19977;-73
2020/12/21 12:08:27;;;;;;;;;;;14.00;80.30;;;;;;5094239;28;19934;-73
2020/12/21 12:10:53;;;;;;;;;;;14.30;79.20;;;;;;5094270;28;19924;-73
2020/12/21 12:13:19;;;;;;;;;;;14.60;78.00;;;;;;5093941;28;19924;-74
2020/12/21 12:15:45;;;;;;;;;;;15.10;77.10;;;;;;5094110;28;19924;-72
2020/12/21 12:18:15;;;;;;;;;;;15.40;75.40;;;;;;5094167;28;19935;-72
2020/12/21 12:20:41;;;;;;;;;;;15.60;73.30;;;;;;5093673;28;19982;-72
2020/12/21 12:23:07;;;;;;;;;;;15.50;73.30;;;;;;5093722;28;19924;-72
2020/12/21 12:25:33;;;;;;;;;;;14.70;75.90;;;;;;5094018;28;19931;-72
2020/12/21 12:28:00;;;;;;;;;;;14.00;77.60;;;;;;5093992;28;19928;-72
2020/12/21 12:30:26;;;;;;;;;;;13.30;82.00;;;;;;5093704;28;19932;-72
2020/12/21 12:32:52;;;;;;;;;;;12.80;84.70;;;;;;5093566;28;19924;-73
2020/12/21 12:35:18;;;;;;;;;;;12.60;88.90;;;;;;5093414;28;20380;-72
2020/12/21 12:37:44;;;;;;;;;;;12.60;90.10;;;;;;5093378;28;19924;-72
2020/12/21 12:40:10;;;;;;;;;;;12.80;90.30;;;;;;5093433;28;20403;-72
2020/12/21 12:42:36;;;;;;;;;;;13.10;89.60;;;;;;5093393;28;19924;-72
2020/12/21 12:45:05;;;;;;;;;;;13.00;88.70;;;;;;5093381;28;19924;-73
2020/12/21 12:47:31;;;;;;;;;;;12.50;90.20;;;;;;5093415;28;20505;-72
2020/12/21 12:49:57;;;;;;;;;;;12.10;92.10;;;;;;5093487;28;19924;-73
2020/12/21 12:52:24;;;;;;;;;;;11.60;95.60;;;;;;5092932;28;20060;-73
2020/12/21 12:54:50;;;;;;;;;;;11.40;98.60;;;;;;5093381;28;19924;-73
2020/12/21 12:57:16;;;;;;;;;;;11.30;99.90;;;;;;5093457;28;19924;-73
2020/12/21 12:59:42;;;;;;;;;;;11.30;99.90;;;;;;5093300;28;20017;-73
2020/12/21 13:02:09;;;;;;;;;;;11.30;99.90;;;;;;5093095;28;20490;-73
2020/12/21 13:04:35;;;;;;;;;;;11.60;99.90;;;;;;5093023;28;19970;-72
2020/12/21 13:07:01;;;;;;;;;;;12.10;98.30;;;;;;5092955;28;19924;-73
2020/12/21 13:09:28;;;;;;;;;;;12.70;94.70;;;;;;5093232;28;20019;-73
2020/12/21 13:11:54;;;;;;;;;;;12.70;93.20;;;;;;5092852;28;20403;-73
2020/12/21 13:14:20;;;;;;;;;;;12.50;93.80;;;;;;5092796;28;19924;-73
2020/12/21 13:16:46;;;;;;;;;;;12.60;93.40;;;;;;5092804;28;19931;-73
2020/12/21 13:19:12;;;;;;;;;;;12.50;92.80;;;;;;5092842;28;19924;-73
2020/12/21 13:21:38;;;;;;;;;;;12.80;93.00;;;;;;5092940;28;19924;-73
2020/12/21 13:24:04;;;;;;;;;;;12.80;91.10;;;;;;5092595;28;19969;-73
2020/12/21 13:26:31;;;;;;;;;;;12.00;93.40;;;;;;5092850;28;20381;-73
2020/12/21 13:28:57;;;;;;;;;;;11.80;95.40;;;;;;5092657;28;19924;-74
2020/12/21 13:31:23;;;;;;;;;;;11.50;96.40;;;;;;5091954;28;19947;-73
2020/12/21 13:33:49;;;;;;;;;;;11.20;99.50;;;;;;5092330;28;19981;-73
2020/12/21 13:36:15;;;;;;;;;;;11.00;99.90;;;;;;5092335;28;19924;-73
2020/12/21 13:38:42;;;;;;;;;;;10.60;99.90;;;;;;5092731;28;19935;-73
2020/12/21 13:41:08;;;;;;;;;;;10.60;99.90;;;;;;5092449;28;20393;-73
2020/12/21 13:43:36;;;;;;;;;;;10.50;99.90;;;;;;5092214;28;19931;-73
2020/12/21 13:46:02;;;;;;;;;;;10.30;99.90;;;;;;5092517;28;19928;-74
2020/12/21 13:48:28;;;;;;;;;;;10.20;99.90;;;;;;5092488;28;19924;-73
2020/12/21 13:50:54;;;;;;;;;;;10.00;99.90;;;;;;5092295;28;20269;-73
2020/12/21 13:53:20;;;;;;;;;;;9.90;99.90;;;;;;5091995;28;20380;-73
2020/12/21 13:55:46;;;;;;;;;;;9.80;99.90;;;;;;5092280;28;20418;-73
2020/12/21 13:58:12;;;;;;;;;;;9.40;99.90;;;;;;5092291;28;20472;-74
2020/12/21 14:00:39;;;;;;;;;;;9.30;99.90;;;;;;5092204;28;20407;-72
2020/12/21 14:03:05;;;;;;;;;;;9.10;99.90;;;;;;5092043;28;19924;-73
2020/12/21 14:05:31;;;;;;;;;;;8.70;99.90;;;;;;5092382;28;19978;-73
2020/12/21 14:07:57;;;;;;;;;;;8.40;99.90;;;;;;5092429;28;19924;-73
2020/12/21 14:10:23;;;;;;;;;;;8.00;99.90;;;;;;5092219;28;19924;-73
2020/12/21 14:12:49;;;;;;;;;;;7.70;99.90;;;;;;5092151;28;19947;-73
2020/12/21 14:15:15;;;;;;;;;;;7.50;99.90;;;;;;5091883;28;20400;-73
2020/12/21 14:17:42;;;;;;;;;;;7.20;99.90;;;;;;5092138;28;19928;-73
2020/12/21 14:20:08;;;;;;;;;;;7.00;99.90;;;;;;5092038;28;20388;-74
2020/12/21 14:22:34;;;;;;;;;;;6.80;99.90;;;;;;5092087;28;19928;-72